Terminal Aerodrome Forecast
Issued by NWS Billings, MT

Home | Current Version | Previous Version | Graphics & Text | Print | Product List | Glossary On
Versions: 1 2 3 4 5 6 7 8 9 10 11 12 13 14 15 16 17 18 19
000
FTUS45 KBYZ 280151 AAA
TAFMLS
TAF AMD
KMLS 280151Z 2802/2824 06008KT P6SM VCTS SCT080CB BKN100
      TEMPO 2802/2804 VRB25G45KT TSRA
     FM280900 04008KT P6SM SCT100=

USA.gov is the U.S. government's official web portal to all federal, state and local government web resources and services.